Melbourne, Florida
Current Conditions -  °F | °C
As of 6:53 AM on Monday 22 Dec 2014 (Local Time) from KMLB Reporting Station
Broken Clouds Broken Clouds  
Wind Chill: 67°   Ceiling: 12000
Heat Index: 67°   Visibility: 10mi
Dew Point: 63°   Wind: 6mph
Humidity: 87%   Direction: 80°E
Pressure: 30.01"   Gusts: NA
Location:  28.08°N, 80.61°W
Report Text: KMLB 221153Z 08005KT 10SM BKN120 19/17 A3001 RMK AO2 SLP161 60011 70011 T01940172 10217 20189 58003
Loading
Personal Weather Stations






























Interactive Weather Map New forecast layout! Learn more

10-Day Weather Forecast

Advertisements
Track Severe Weather on mobile